Time;durP1;ratioP1;P1;durP2;ratioP2;P2;SDS_P1;SDS_P2;PMS_P1;PMS_P2;Temp;Humidity;BMP_temperature;BMP_pressure;BME280_temperature;BME280_humidity;BME280_pressure;Samples;Min_cycle;Max_cycle;Signal;HPM_P1;HPM_P2
2022/09/04 00:00:14;;;;;;;3.87;1.90;;;19.90;99.90;;;;;;4992982;28;20624;-71
2022/09/04 00:02:52;;;;;;;1.90;1.37;;;19.90;99.90;;;;;;4974224;28;21027;-72
2022/09/04 00:05:51;;;;;;;2.77;1.57;;;19.90;99.90;;;;;;4993505;28;20951;-73
2022/09/04 00:08:38;;;;;;;2.07;1.70;;;19.90;99.90;;;;;;4993375;28;21037;-71
2022/09/04 00:11:43;;;;;;;2.67;2.43;;;19.90;99.90;;;;;;4993026;28;20574;-72
2022/09/04 00:14:34;;;;;;;2.90;1.83;;;19.90;99.90;;;;;;4993224;28;20569;-72
2022/09/04 00:17:05;;;;;;;2.20;1.53;;;19.90;99.90;;;;;;4993198;28;20558;-72
2022/09/04 00:19:55;;;;;;;2.60;1.67;;;19.80;99.90;;;;;;4992922;28;20683;-72
2022/09/04 00:22:29;;;;;;;2.43;1.60;;;19.80;99.90;;;;;;4992106;28;20586;-72
2022/09/04 00:25:18;;;;;;;2.63;2.43;;;19.80;99.90;;;;;;4993149;28;20581;-73
2022/09/04 00:27:49;;;;;;;3.17;2.57;;;19.80;99.90;;;;;;4993055;28;20653;-73
2022/09/04 00:30:21;;;;;;;3.73;2.40;;;19.80;99.90;;;;;;4984008;28;20988;-74
2022/09/04 00:33:28;;;;;;;3.43;2.40;;;19.80;99.90;;;;;;4992715;28;20673;-72
2022/09/04 00:35:58;;;;;;;4.33;1.77;;;19.80;99.90;;;;;;4977437;28;20597;-73
2022/09/04 00:38:46;;;;;;;4.47;2.37;;;19.80;99.90;;;;;;4992858;28;20712;-73
2022/09/04 00:41:31;;;;;;;2.83;2.30;;;19.70;99.90;;;;;;4992366;28;20990;-73
2022/09/04 00:44:00;;;;;;;3.20;2.57;;;19.70;99.90;;;;;;4989527;28;20566;-73
2022/09/04 00:46:32;;;;;;;3.57;2.90;;;19.70;99.90;;;;;;4992560;28;20600;-73
2022/09/04 00:49:28;;;;;;;2.60;2.13;;;19.70;99.90;;;;;;4992768;28;20566;-73
2022/09/04 00:51:57;;;;;;;3.13;2.70;;;19.70;99.90;;;;;;4992477;28;20637;-73
2022/09/04 00:55:00;;;;;;;3.13;2.83;;;19.70;99.90;;;;;;4992565;28;20574;-73
2022/09/04 00:57:26;;;;;;;2.67;2.47;;;19.60;99.90;;;;;;4992668;28;21002;-73
2022/09/04 01:00:08;;;;;;;2.63;2.43;;;19.60;99.90;;;;;;4992361;28;20708;-73
2022/09/04 01:02:55;;;;;;;3.10;2.67;;;19.60;99.90;;;;;;4992464;28;20199;-73
2022/09/04 01:05:51;;;;;;;3.00;2.73;;;19.60;99.90;;;;;;4992752;28;20601;-73
2022/09/04 01:08:33;;;;;;;3.57;2.93;;;19.60;99.90;;;;;;4993111;28;21182;-73
2022/09/04 01:11:31;;;;;;;3.83;2.47;;;19.50;99.90;;;;;;4961168;28;20597;-72
2022/09/04 01:14:13;;;;;;;3.43;3.13;;;19.50;99.90;;;;;;4984144;28;20578;-72
2022/09/04 01:17:08;;;;;;;6.47;3.30;;;19.50;99.90;;;;;;4987873;28;20586;-72
2022/09/04 01:20:15;;;;;;;5.07;4.07;;;19.50;99.90;;;;;;4973408;28;20630;-72
2022/09/04 01:23:16;;;;;;;3.90;3.50;;;19.50;99.90;;;;;;4923534;29;20644;-72
2022/09/04 01:26:11;;;;;;;3.70;2.77;;;19.40;99.90;;;;;;4976629;28;20678;-72
2022/09/04 01:28:57;;;;;;;3.20;2.90;;;19.40;99.90;;;;;;4933170;29;20572;-72
2022/09/04 01:31:42;;;;;;;3.60;3.23;;;19.40;99.90;;;;;;4932765;29;20597;-72
2022/09/04 01:34:35;;;;;;;3.43;3.13;;;19.40;99.90;;;;;;4955495;28;20560;-72
2022/09/04 01:37:16;;;;;;;3.97;3.60;;;19.40;99.90;;;;;;4957392;29;20906;-72
2022/09/04 01:39:47;;;;;;;3.87;3.07;;;19.40;99.90;;;;;;4957038;29;20955;-72
2022/09/04 01:42:21;;;;;;;5.47;3.00;;;19.40;99.90;;;;;;4929189;29;20617;-72
2022/09/04 01:44:48;;;;;;;4.27;3.50;;;19.40;99.90;;;;;;4936820;29;20573;-71
2022/09/04 01:47:22;;;;;;;4.10;3.80;;;19.40;99.90;;;;;;4957339;29;20942;-72
2022/09/04 01:49:57;;;;;;;3.67;3.33;;;19.40;99.90;;;;;;4952915;29;20612;-72
2022/09/04 01:52:37;;;;;;;4.00;3.47;;;19.40;99.90;;;;;;4957088;28;20583;-71
2022/09/04 01:55:22;;;;;;;3.63;3.33;;;19.30;99.90;;;;;;4957137;29;20567;-72
2022/09/04 01:58:07;;;;;;;4.57;3.67;;;19.30;99.90;;;;;;4957091;29;20560;-72
2022/09/04 02:00:56;;;;;;;4.20;3.80;;;19.30;99.90;;;;;;4936483;29;20587;-72
2022/09/04 02:03:37;;;;;;;3.90;3.60;;;19.30;99.90;;;;;;4971046;28;20586;-72
2022/09/04 02:06:28;;;;;;;5.43;4.27;;;19.30;99.90;;;;;;4976179;28;21167;-72
2022/09/04 02:09:30;;;;;;;4.00;3.60;;;19.30;99.90;;;;;;4976088;28;20575;-72
2022/09/04 02:12:27;;;;;;;6.07;3.70;;;19.30;99.90;;;;;;4975950;28;20592;-72
2022/09/04 02:15:25;;;;;;;4.30;3.90;;;19.30;99.90;;;;;;4958656;28;21224;-72
2022/09/04 02:18:18;;;;;;;5.40;4.90;;;19.20;99.90;;;;;;4975978;28;20633;-72
2022/09/04 02:20:54;;;;;;;5.50;5.00;;;19.20;99.90;;;;;;4975745;28;20578;-72
2022/09/04 02:23:37;;;;;;;5.20;4.63;;;19.20;99.90;;;;;;4969004;28;20578;-71
2022/09/04 02:26:13;;;;;;;7.60;6.90;;;19.20;99.90;;;;;;4975748;28;21171;-72
2022/09/04 02:29:02;;;;;;;5.40;4.90;;;19.20;99.90;;;;;;4975931;28;20690;-72
2022/09/04 02:31:49;;;;;;;5.33;4.83;;;19.10;99.90;;;;;;4969682;28;20614;-72
2022/09/04 02:34:25;;;;;;;6.03;5.50;;;19.10;99.90;;;;;;4968295;28;20652;-72
2022/09/04 02:37:29;;;;;;;5.07;4.57;;;19.10;99.90;;;;;;4975816;28;20582;-72
2022/09/04 02:39:59;;;;;;;6.13;5.27;;;19.10;99.90;;;;;;4975225;28;20705;-72
2022/09/04 02:42:50;;;;;;;7.00;5.50;;;19.10;99.90;;;;;;4975377;28;20646;-72
2022/09/04 02:45:43;;;;;;;6.30;5.70;;;19.10;99.90;;;;;;4967276;28;20606;-72
2022/09/04 02:48:54;;;;;;;5.93;5.00;;;19.00;99.90;;;;;;4975589;28;20916;-72
2022/09/04 02:51:31;;;;;;;6.17;5.57;;;19.10;99.90;;;;;;4968324;28;20968;-72
2022/09/04 02:54:32;;;;;;;5.33;4.90;;;19.00;99.90;;;;;;4975218;28;20602;-72
2022/09/04 02:57:38;;;;;;;5.67;4.67;;;19.00;99.90;;;;;;4969737;28;20590;-72
2022/09/04 03:00:18;;;;;;;5.03;4.53;;;19.00;99.90;;;;;;4941628;28;20713;-72
2022/09/04 03:03:05;;;;;;;4.67;4.20;;;19.00;99.90;;;;;;4957586;28;20613;-72
2022/09/04 03:06:17;;;;;;;5.63;4.73;;;19.00;99.90;;;;;;4952651;28;20669;-71
2022/09/04 03:08:56;;;;;;;5.20;4.40;;;19.00;99.90;;;;;;4971055;28;21035;-72
2022/09/04 03:11:47;;;;;;;5.97;5.43;;;19.00;99.90;;;;;;4968197;28;20672;-72
2022/09/04 03:14:26;;;;;;;5.10;4.27;;;19.00;99.90;;;;;;4950058;28;21081;-72
2022/09/04 03:17:18;;;;;;;4.53;4.13;;;19.00;99.90;;;;;;4957494;28;20579;-72
2022/09/04 03:19:56;;;;;;;4.83;4.43;;;19.00;99.90;;;;;;4974441;28;20986;-71
2022/09/04 03:22:40;;;;;;;5.20;4.60;;;18.90;99.90;;;;;;4968097;28;20654;-72
2022/09/04 03:25:33;;;;;;;5.63;5.10;;;18.90;99.90;;;;;;4974684;28;20934;-72
2022/09/04 03:28:00;;;;;;;5.83;5.33;;;18.90;99.90;;;;;;4958396;28;20567;-72
2022/09/04 03:30:28;;;;;;;5.23;4.83;;;18.80;99.90;;;;;;4957130;28;20916;-71
2022/09/04 03:32:56;;;;;;;4.93;4.43;;;18.80;99.90;;;;;;4974428;28;20597;-72
2022/09/04 03:35:58;;;;;;;4.70;4.20;;;18.80;99.90;;;;;;4974518;28;20566;-72
2022/09/04 03:38:33;;;;;;;4.13;3.73;;;18.80;99.90;;;;;;4968248;28;20573;-72
2022/09/04 03:41:46;;;;;;;5.80;5.00;;;18.80;99.90;;;;;;4974386;28;20621;-72
2022/09/04 03:44:19;;;;;;;5.20;4.17;;;18.80;99.90;;;;;;4956586;28;20590;-71
2022/09/04 03:47:11;;;;;;;5.37;4.87;;;18.80;99.90;;;;;;4974454;28;21176;-71
2022/09/04 03:50:18;;;;;;;4.67;4.20;;;18.80;99.90;;;;;;4910919;28;20597;-71
2022/09/04 03:53:21;;;;;;;3.93;3.53;;;18.80;99.90;;;;;;4951040;28;20623;-71
2022/09/04 03:56:06;;;;;;;5.60;5.10;;;18.80;99.90;;;;;;4971066;28;20567;-72
2022/09/04 03:59:04;;;;;;;4.10;3.70;;;18.70;99.90;;;;;;4974121;28;20713;-72
2022/09/04 04:01:48;;;;;;;5.53;4.50;;;18.70;99.90;;;;;;4966138;28;20595;-72
2022/09/04 04:04:37;;;;;;;4.47;4.07;;;18.70;99.90;;;;;;4947426;29;20568;-72
2022/09/04 04:07:12;;;;;;;5.17;4.50;;;18.70;99.90;;;;;;4954518;28;20583;-72
2022/09/04 04:10:12;;;;;;;4.50;4.10;;;18.70;99.90;;;;;;4954385;29;20595;-72
2022/09/04 04:13:03;;;;;;;4.90;4.13;;;18.70;99.90;;;;;;4949705;28;20963;-72
2022/09/04 04:15:52;;;;;;;4.47;4.07;;;18.70;99.90;;;;;;4948997;29;20579;-72
2022/09/04 04:18:40;;;;;;;4.93;4.53;;;18.70;99.90;;;;;;4947379;29;20582;-72
2022/09/04 04:21:21;;;;;;;5.93;4.30;;;18.70;99.90;;;;;;4954037;28;20662;-72
2022/09/04 04:23:55;;;;;;;5.17;4.67;;;18.70;99.90;;;;;;4954352;29;21130;-72
2022/09/04 04:26:39;;;;;;;4.20;3.80;;;18.70;99.90;;;;;;4954508;29;20931;-72
2022/09/04 04:29:39;;;;;;;4.23;3.67;;;18.60;99.90;;;;;;4954287;29;20981;-71
2022/09/04 04:32:26;;;;;;;4.50;4.10;;;18.60;99.90;;;;;;4936351;29;20723;-72
2022/09/04 04:35:15;;;;;;;3.83;3.53;;;18.60;99.90;;;;;;4921201;29;20584;-72
2022/09/04 04:37:42;;;;;;;5.13;4.63;;;18.60;99.90;;;;;;4954144;29;20619;-71
2022/09/04 04:40:16;;;;;;;5.00;4.60;;;18.60;99.90;;;;;;4953838;29;20612;-72
2022/09/04 04:42:49;;;;;;;4.43;4.03;;;18.60;99.90;;;;;;4917681;29;20608;-72
2022/09/04 04:48:13;;;;;;;5.20;4.63;;;18.60;99.90;;;;;;4954153;29;20575;-72
2022/09/04 04:50:52;;;;;;;6.30;4.60;;;18.60;99.90;;;;;;4953666;29;20565;-72
2022/09/04 04:53:42;;;;;;;4.73;4.03;;;18.60;99.90;;;;;;4926563;29;20581;-72
2022/09/04 04:56:14;;;;;;;5.07;4.60;;;18.60;99.90;;;;;;4953626;29;20564;-72
2022/09/04 04:59:12;;;;;;;4.20;3.80;;;18.60;99.90;;;;;;4953942;29;20623;-72
2022/09/04 05:01:57;;;;;;;4.83;4.43;;;18.60;99.90;;;;;;4943966;28;20628;-72
2022/09/04 05:04:49;;;;;;;5.03;3.97;;;18.60;99.90;;;;;;4947493;29;20618;-72
2022/09/04 05:07:30;;;;;;;6.40;3.97;;;18.60;99.90;;;;;;4946526;29;20599;-72
2022/09/04 05:10:11;;;;;;;4.17;3.77;;;18.60;99.90;;;;;;4934533;29;20595;-72
2022/09/04 05:13:14;;;;;;;4.80;3.40;;;18.50;99.90;;;;;;4933194;29;20612;-73
2022/09/04 05:15:51;;;;;;;4.00;3.60;;;18.50;99.90;;;;;;4949655;29;20931;-73
2022/09/04 05:18:50;;;;;;;3.80;3.40;;;18.60;99.90;;;;;;4946599;29;20582;-73
2022/09/04 05:21:37;;;;;;;4.37;3.97;;;18.60;99.90;;;;;;4946037;28;20677;-73
2022/09/04 05:24:17;;;;;;;4.00;3.60;;;18.60;99.90;;;;;;4961344;28;21040;-73
2022/09/04 05:26:46;;;;;;;3.90;3.53;;;18.60;99.90;;;;;;4984201;28;20586;-73
2022/09/04 05:29:40;;;;;;;4.23;3.87;;;18.70;99.90;;;;;;4992062;28;20665;-73
2022/09/04 05:32:52;;;;;;;3.60;3.00;;;18.70;99.90;;;;;;4945095;28;20618;-74
2022/09/04 05:35:41;;;;;;;2.80;2.60;;;18.70;99.90;;;;;;4861489;29;20596;-73
2022/09/04 05:38:27;;;;;;;3.40;3.10;;;18.70;99.90;;;;;;4856946;29;20588;-73
2022/09/04 05:41:06;;;;;;;8.90;3.93;;;18.70;99.90;;;;;;4928404;28;21192;-73
2022/09/04 05:43:56;;;;;;;4.27;3.90;;;18.70;99.90;;;;;;4933470;29;20588;-73
2022/09/04 05:46:39;;;;;;;5.80;4.70;;;18.70;99.90;;;;;;4932793;29;21131;-73
2022/09/04 05:49:36;;;;;;;5.20;3.60;;;18.80;99.90;;;;;;4952697;29;20594;-73
2022/09/04 05:52:16;;;;;;;4.60;4.07;;;18.80;99.90;;;;;;4953057;28;20612;-72
2022/09/04 05:54:48;;;;;;;4.27;3.87;;;18.80;99.90;;;;;;4952997;29;20663;-73
2022/09/04 05:57:31;;;;;;;3.83;3.40;;;18.90;99.90;;;;;;4953046;29;20584;-73
2022/09/04 06:00:08;;;;;;;5.53;3.10;;;18.90;99.90;;;;;;4933868;29;20687;-73
2022/09/04 06:03:22;;;;;;;4.70;4.10;;;18.90;99.90;;;;;;4964253;28;21056;-73
2022/09/04 06:06:10;;;;;;;4.60;4.20;;;19.00;99.90;;;;;;4972178;28;20626;-73
2022/09/04 06:09:17;;;;;;;5.13;4.63;;;19.10;99.90;;;;;;4972558;28;20573;-73
2022/09/04 06:11:58;;;;;;;4.47;4.03;;;19.10;99.90;;;;;;4964100;28;20622;-73
2022/09/04 06:14:56;;;;;;;4.70;3.93;;;19.20;99.90;;;;;;4972272;28;20670;-73
2022/09/04 06:17:33;;;;;;;3.37;3.07;;;19.30;99.90;;;;;;4972374;28;20571;-73
2022/09/04 06:20:28;;;;;;;5.23;4.07;;;19.40;99.90;;;;;;4972308;28;20610;-73
2022/09/04 06:23:00;;;;;;;4.10;3.80;;;19.40;99.90;;;;;;4975810;28;20605;-73
2022/09/04 06:25:48;;;;;;;4.10;3.80;;;19.50;99.90;;;;;;4976023;28;21024;-73
2022/09/04 06:28:16;;;;;;;3.97;3.63;;;19.50;99.90;;;;;;4947969;29;20580;-72
2022/09/04 06:31:06;;;;;;;4.27;3.90;;;19.70;99.90;;;;;;4971758;28;20571;-73
2022/09/04 06:34:06;;;;;;;4.00;3.30;;;19.70;99.90;;;;;;4975717;28;20571;-73
2022/09/04 06:37:03;;;;;;;4.40;3.97;;;19.80;99.90;;;;;;4975823;28;20567;-73
2022/09/04 06:39:44;;;;;;;3.57;3.27;;;20.00;99.90;;;;;;4975480;28;20615;-73
2022/09/04 06:42:48;;;;;;;4.20;3.60;;;20.20;99.90;;;;;;4975427;28;20586;-73
2022/09/04 06:45:19;;;;;;;3.40;3.10;;;20.60;99.90;;;;;;4961751;28;20587;-73
2022/09/04 06:47:50;;;;;;;3.17;2.87;;;21.20;99.90;;;;;;4976164;28;20610;-73
2022/09/04 06:50:23;;;;;;;4.20;2.60;;;22.00;99.90;;;;;;4968713;28;20594;-73
2022/09/04 06:53:04;;;;;;;3.60;2.70;;;22.70;99.90;;;;;;4975507;28;20641;-73
2022/09/04 06:55:50;;;;;;;3.80;2.97;;;23.50;99.90;;;;;;4959238;28;20614;-73
2022/09/04 06:59:03;;;;;;;3.37;2.70;;;24.20;99.90;;;;;;4975917;28;20606;-73
2022/09/04 07:01:45;;;;;;;2.87;1.87;;;25.00;99.90;;;;;;4928485;29;20627;-74
2022/09/04 07:04:39;;;;;;;2.73;2.20;;;26.00;99.90;;;;;;4970231;28;20591;-73
2022/09/04 07:07:18;;;;;;;2.40;2.20;;;26.70;99.90;;;;;;4975134;28;20560;-73
2022/09/04 07:10:14;;;;;;;2.40;2.00;;;27.40;99.90;;;;;;4957720;28;20567;-73
2022/09/04 07:13:05;;;;;;;2.30;2.10;;;27.90;99.90;;;;;;4950496;28;21138;-73
2022/09/04 07:15:57;;;;;;;2.17;1.90;;;28.60;99.90;;;;;;4952394;28;20574;-74
2022/09/04 07:18:41;;;;;;;1.87;1.53;;;29.20;99.90;;;;;;4922837;29;20641;-74
2022/09/04 07:21:16;;;;;;;3.23;2.27;;;29.90;99.90;;;;;;4973970;28;20586;-73
2022/09/04 07:24:10;;;;;;;3.07;1.60;;;30.20;99.90;;;;;;4975009;28;21131;-73
2022/09/04 07:26:50;;;;;;;2.30;2.10;;;30.70;99.90;;;;;;4970296;28;21042;-73
2022/09/04 07:29:41;;;;;;;2.20;2.00;;;31.30;99.90;;;;;;4967421;28;21158;-73
2022/09/04 07:32:20;;;;;;;2.40;2.20;;;31.80;99.90;;;;;;4974254;28;20631;-73
2022/09/04 07:34:46;;;;;;;2.90;1.50;;;32.20;99.90;;;;;;4974564;28;20573;-73
2022/09/04 07:37:57;;;;;;;2.10;1.60;;;32.60;99.90;;;;;;4974702;28;20735;-73
2022/09/04 07:40:33;;;;;;;3.07;1.57;;;32.70;99.90;;;;;;4959651;28;20234;-74
2022/09/04 07:43:08;;;;;;;4.50;1.90;;;32.60;97.70;;;;;;4974350;28;20601;-74
2022/09/04 07:45:38;;;;;;;2.10;1.90;;;32.50;96.90;;;;;;4974443;28;20592;-73
2022/09/04 07:48:29;;;;;;;2.27;2.00;;;32.70;96.60;;;;;;4974436;28;20565;-73
2022/09/04 07:51:03;;;;;;;5.30;1.90;;;32.70;95.90;;;;;;4974064;28;20569;-73
2022/09/04 07:53:50;;;;;;;1.90;1.20;;;32.80;93.70;;;;;;4974128;28;20574;-73
2022/09/04 07:56:27;;;;;;;2.67;1.70;;;33.10;94.50;;;;;;4956908;28;20636;-73
2022/09/04 07:59:20;;;;;;;1.70;1.40;;;33.20;91.90;;;;;;4974106;28;20708;-74
2022/09/04 08:02:04;;;;;;;2.53;2.03;;;33.50;91.80;;;;;;4973515;28;21037;-73
2022/09/04 08:04:54;;;;;;;1.97;1.77;;;33.70;90.40;;;;;;4974111;28;20559;-73
2022/09/04 08:07:32;;;;;;;2.70;1.63;;;33.90;90.70;;;;;;4973989;28;20567;-73
2022/09/04 08:10:16;;;;;;;2.10;1.73;;;33.90;88.60;;;;;;4973753;28;20617;-74
2022/09/04 08:12:52;;;;;;;2.93;1.67;;;34.20;88.80;;;;;;4973726;28;20621;-74
2022/09/04 08:15:22;;;;;;;1.80;1.30;;;34.80;89.20;;;;;;4973927;28;20658;-74
2022/09/04 08:18:00;;;;;;;2.10;1.40;;;35.10;86.10;;;;;;4973940;28;20574;-73
2022/09/04 08:20:43;;;;;;;3.10;1.43;;;35.40;84.70;;;;;;4956109;28;20619;-74
2022/09/04 08:23:31;;;;;;;2.90;1.63;;;36.00;84.70;;;;;;4973712;28;20598;-74
2022/09/04 08:26:15;;;;;;;2.80;1.37;;;36.10;77.80;;;;;;4973711;28;20568;-74
2022/09/04 08:28:55;;;;;;;6.20;1.33;;;36.10;74.50;;;;;;4973550;28;20571;-73
2022/09/04 08:31:30;;;;;;;1.83;1.10;;;36.40;74.30;;;;;;4931471;29;20596;-73
2022/09/04 08:34:21;;;;;;;2.77;1.40;;;36.70;70.70;;;;;;4954533;28;20598;-72
2022/09/04 08:37:08;;;;;;;4.10;1.23;;;36.70;70.30;;;;;;4973515;28;20567;-72
2022/09/04 08:40:18;;;;;;;3.10;1.63;;;37.00;70.70;;;;;;4973089;28;20657;-72
2022/09/04 08:42:57;;;;;;;2.70;1.87;;;37.50;65.50;;;;;;4938662;28;20608;-72
2022/09/04 08:46:02;;;;;;;1.90;1.40;;;37.80;68.10;;;;;;4955718;28;20597;-72
2022/09/04 08:49:22;;;;;;;1.90;1.40;;;37.90;66.60;;;;;;4979703;28;20598;-74
2022/09/04 08:52:26;;;;;;;2.40;1.30;;;38.30;65.80;;;;;;4997214;28;20616;-71
2022/09/04 08:55:16;;;;;;;2.33;1.43;;;38.60;64.70;;;;;;5003789;28;20577;-72
2022/09/04 08:58:19;;;;;;;2.23;1.10;;;39.10;63.40;;;;;;4994405;28;20660;-72
2022/09/04 09:01:21;;;;;;;2.57;1.20;;;39.60;61.80;;;;;;5011626;28;20623;-71
2022/09/04 09:04:03;;;;;;;1.67;1.00;;;40.10;60.90;;;;;;5012016;28;20564;-72
2022/09/04 09:06:52;;;;;;;1.90;1.10;;;40.60;59.90;;;;;;5011956;28;20549;-72
2022/09/04 09:09:18;;;;;;;2.97;0.97;;;40.90;57.50;;;;;;5011776;28;20669;-72
2022/09/04 09:11:56;;;;;;;1.50;1.00;;;41.30;56.90;;;;;;5011855;28;21029;-72
2022/09/04 09:14:37;;;;;;;3.20;1.13;;;41.40;54.20;;;;;;5011919;28;20879;-72
2022/09/04 09:17:24;;;;;;;2.83;1.10;;;41.20;51.80;;;;;;5011931;28;20565;-72
2022/09/04 09:20:14;;;;;;;1.97;1.30;;;41.10;51.20;;;;;;5011612;28;20625;-72
2022/09/04 09:22:48;;;;;;;2.37;1.00;;;40.90;51.90;;;;;;5011617;28;20690;-72
2022/09/04 09:25:29;;;;;;;1.70;0.93;;;41.00;51.90;;;;;;5011840;28;20569;-72
2022/09/04 09:28:19;;;;;;;2.77;1.00;;;41.30;51.40;;;;;;5011842;28;21294;-72
2022/09/04 09:31:09;;;;;;;1.90;1.10;;;41.40;51.20;;;;;;5011414;28;21213;-72
2022/09/04 09:33:58;;;;;;;1.90;1.20;;;41.00;49.30;;;;;;4994101;28;21024;-72
2022/09/04 09:36:43;;;;;;;3.20;1.33;;;40.50;49.30;;;;;;4990984;28;20917;-72
2022/09/04 09:39:30;;;;;;;1.70;1.00;;;40.30;48.80;;;;;;5011296;28;20621;-72
2022/09/04 09:42:14;;;;;;;2.23;1.40;;;40.20;48.80;;;;;;4993728;28;20585;-72
2022/09/04 09:44:52;;;;;;;1.50;0.80;;;40.00;48.60;;;;;;5011590;28;20561;-72
2022/09/04 09:47:37;;;;;;;3.90;1.50;;;40.20;48.70;;;;;;4993978;28;20570;-72
2022/09/04 09:50:02;;;;;;;1.60;0.90;;;40.20;48.50;;;;;;5011248;28;20565;-72
2022/09/04 09:53:06;;;;;;;2.97;1.00;;;40.10;48.00;;;;;;5011646;28;20593;-72
2022/09/04 09:55:41;;;;;;;1.60;0.80;;;40.00;48.10;;;;;;4997360;28;20169;-72
2022/09/04 09:58:18;;;;;;;2.20;1.00;;;40.10;47.60;;;;;;5016003;28;20595;-74
2022/09/04 10:01:11;;;;;;;2.17;1.10;;;40.40;48.30;;;;;;5016643;28;20675;-73
2022/09/04 10:04:15;;;;;;;3.23;0.90;;;40.80;47.60;;;;;;4996996;28;20684;-73
2022/09/04 10:07:20;;;;;;;1.53;0.80;;;40.90;46.00;;;;;;4995637;28;20570;-73
2022/09/04 10:10:04;;;;;;;1.80;0.87;;;41.00;46.90;;;;;;4995304;28;20584;-72
2022/09/04 10:12:55;;;;;;;1.50;0.90;;;41.20;46.80;;;;;;4995397;28;20605;-73
2022/09/04 10:15:58;;;;;;;1.60;1.00;;;41.60;46.70;;;;;;4995569;28;20566;-73
2022/09/04 10:19:03;;;;;;;1.70;1.17;;;42.00;46.90;;;;;;4995392;28;21143;-73
2022/09/04 10:21:54;;;;;;;1.90;1.07;;;42.30;46.10;;;;;;4974292;28;20609;-73
2022/09/04 10:25:08;;;;;;;2.00;1.03;;;42.20;44.30;;;;;;4988701;28;20558;-73
2022/09/04 10:27:58;;;;;;;1.57;1.13;;;42.00;44.30;;;;;;4961387;28;20582;-73
2022/09/04 10:30:47;;;;;;;2.13;1.00;;;42.10;43.80;;;;;;4988973;28;20643;-74
2022/09/04 10:33:25;;;;;;;3.90;0.97;;;41.70;42.90;;;;;;4995075;28;20598;-72
2022/09/04 10:36:15;;;;;;;1.70;1.10;;;41.40;43.10;;;;;;4995145;28;20646;-72
2022/09/04 10:41:57;;;;;;;1.97;1.00;;;40.70;42.90;;;;;;4990375;28;20614;-71
2022/09/04 10:44:40;;;;;;;1.60;1.00;;;40.20;43.20;;;;;;4995084;28;20562;-72
2022/09/04 10:47:30;;;;;;;2.10;0.90;;;40.10;43.10;;;;;;4994990;28;20570;-72
2022/09/04 10:50:29;;;;;;;2.20;1.27;;;40.10;43.90;;;;;;4994532;28;20721;-73
2022/09/04 10:53:09;;;;;;;2.03;1.20;;;40.10;43.80;;;;;;4971885;28;20707;-73
2022/09/04 10:55:56;;;;;;;2.40;0.90;;;40.10;43.50;;;;;;4994776;28;20585;-73
2022/09/04 10:58:55;;;;;;;2.37;0.90;;;39.40;43.10;;;;;;4994748;28;20577;-73
2022/09/04 11:01:46;;;;;;;1.70;1.20;;;38.90;43.30;;;;;;4988277;28;21312;-73
2022/09/04 11:04:21;;;;;;;1.70;0.80;;;38.70;43.70;;;;;;4994671;28;20658;-74
2022/09/04 11:07:01;;;;;;;1.60;0.70;;;38.70;44.30;;;;;;4992577;28;20676;-73
2022/09/04 11:09:32;;;;;;;1.77;0.80;;;38.80;44.70;;;;;;4989781;28;20650;-74
2022/09/04 11:12:20;;;;;;;1.97;0.90;;;39.00;44.80;;;;;;4992798;28;20612;-74
2022/09/04 11:15:05;;;;;;;1.97;0.73;;;39.20;45.00;;;;;;4994256;28;20946;-72
2022/09/04 11:18:04;;;;;;;1.80;0.90;;;39.60;44.70;;;;;;5041198;23;21038;-79
2022/09/04 11:20:58;;;;;;;3.60;1.30;;;39.70;44.00;;;;;;5012679;28;20954;-78
2022/09/04 11:23:42;;;;;;;2.33;1.27;;;40.10;44.20;;;;;;4994177;28;21134;-78
2022/09/04 11:26:29;;;;;;;1.40;0.70;;;40.30;44.00;;;;;;4993274;28;20988;-78
2022/09/04 11:29:13;;;;;;;1.83;0.70;;;40.50;43.60;;;;;;5011999;28;21063;-79
2022/09/04 11:32:16;;;;;;;1.90;0.80;;;40.70;42.90;;;;;;4993037;28;20570;-78
2022/09/04 11:35:21;;;;;;;1.97;0.80;;;40.60;40.70;;;;;;5010163;28;20572;-79
2022/09/04 11:37:55;;;;;;;2.33;0.70;;;40.60;42.00;;;;;;5009588;28;20598;-78
2022/09/04 11:40:42;;;;;;;1.40;0.80;;;40.30;41.20;;;;;;5013475;28;20569;-79
2022/09/04 11:43:23;;;;;;;2.53;0.80;;;39.90;40.90;;;;;;4996009;28;20631;-78
2022/09/04 11:46:18;;;;;;;2.77;0.90;;;39.40;41.20;;;;;;5013577;28;20569;-78
2022/09/04 11:49:14;;;;;;;1.60;0.80;;;38.80;41.40;;;;;;4976668;28;20791;-78
2022/09/04 11:52:25;;;;;;;2.40;1.47;;;38.10;41.70;;;;;;4992445;28;20682;-78
2022/09/04 11:55:13;;;;;;;2.67;2.20;;;37.70;42.60;;;;;;5000630;28;20641;-78
2022/09/04 11:58:05;;;;;;;2.00;1.50;;;37.30;42.80;;;;;;4993905;28;20585;-79
2022/09/04 12:00:49;;;;;;;2.80;1.10;;;36.90;42.70;;;;;;4987146;28;20570;-78
2022/09/04 12:03:45;;;;;;;2.30;0.93;;;36.60;42.90;;;;;;4976196;28;20991;-78
2022/09/04 12:06:27;;;;;;;1.50;0.80;;;36.10;42.80;;;;;;4993777;28;20573;-78
2022/09/04 12:09:21;;;;;;;2.63;0.73;;;35.60;43.40;;;;;;4990142;28;20645;-78
2022/09/04 12:12:21;;;;;;;2.77;0.77;;;35.10;43.80;;;;;;4993431;28;20600;-78
2022/09/04 12:15:24;;;;;;;1.57;0.67;;;34.60;44.20;;;;;;4958033;28;20794;-79
2022/09/04 12:18:00;;;;;;;3.40;1.87;;;34.20;44.50;;;;;;4972360;28;20641;-78
2022/09/04 12:20:41;;;;;;;2.67;2.30;;;33.70;44.70;;;;;;4992965;28;20574;-78
2022/09/04 12:23:16;;;;;;;2.63;1.50;;;33.50;45.20;;;;;;4975825;28;20562;-79
2022/09/04 12:25:51;;;;;;;7.90;4.33;;;33.20;45.50;;;;;;4956663;28;20585;-79
2022/09/04 12:28:47;;;;;;;4.30;3.80;;;32.90;46.00;;;;;;4986039;28;20659;-79
2022/09/04 12:31:45;;;;;;;2.20;1.47;;;32.60;46.70;;;;;;4972199;28;20587;-78
2022/09/04 12:34:48;;;;;;;2.93;1.30;;;32.40;46.80;;;;;;4968106;28;20569;-78
2022/09/04 12:37:22;;;;;;;1.60;0.97;;;32.20;47.30;;;;;;4975666;28;20692;-78
2022/09/04 12:40:08;;;;;;;1.37;0.60;;;32.30;47.90;;;;;;4992848;28;20577;-79
2022/09/04 12:43:04;;;;;;;2.33;0.90;;;32.40;48.50;;;;;;4972287;28;20934;-79
2022/09/04 12:45:47;;;;;;;2.80;0.80;;;32.60;48.80;;;;;;4972889;28;20947;-78
2022/09/04 12:48:32;;;;;;;1.73;0.77;;;32.80;48.70;;;;;;4973384;28;20867;-79
2022/09/04 12:51:23;;;;;;;1.70;0.90;;;32.90;48.80;;;;;;4991191;28;20634;-78
2022/09/04 12:53:58;;;;;;;1.53;0.70;;;33.20;48.80;;;;;;4993004;28;20591;-78
2022/09/04 12:56:57;;;;;;;1.87;0.60;;;33.40;48.50;;;;;;4992860;28;20567;-78
2022/09/04 12:59:41;;;;;;;1.60;0.80;;;33.50;48.20;;;;;;4972439;28;20574;-79
2022/09/04 13:02:26;;;;;;;2.00;1.40;;;33.60;47.60;;;;;;4992578;28;20570;-78
2022/09/04 13:05:17;;;;;;;2.00;1.10;;;33.50;47.80;;;;;;4993144;28;20651;-78
2022/09/04 13:08:05;;;;;;;2.80;1.00;;;33.50;47.50;;;;;;4974423;28;20589;-79
2022/09/04 13:10:42;;;;;;;1.30;0.70;;;33.30;47.50;;;;;;4987305;28;20623;-78
2022/09/04 13:13:37;;;;;;;1.60;0.80;;;33.30;47.70;;;;;;4992642;28;20564;-79
2022/09/04 13:16:06;;;;;;;1.30;0.60;;;33.20;47.50;;;;;;4991038;28;20620;-79
2022/09/04 13:18:47;;;;;;;4.30;0.70;;;33.20;47.30;;;;;;4971751;28;20638;-79
2022/09/04 13:21:19;;;;;;;2.47;0.70;;;33.00;47.10;;;;;;4972780;28;20567;-79
2022/09/04 13:23:51;;;;;;;4.10;3.70;;;32.90;47.20;;;;;;4956006;28;20571;-78
2022/09/04 13:26:41;;;;;;;5.53;2.90;;;32.80;47.10;;;;;;4972064;28;20559;-78
2022/09/04 13:29:34;;;;;;;3.00;1.37;;;32.70;47.30;;;;;;4991190;28;20637;-78
2022/09/04 13:32:18;;;;;;;1.87;0.97;;;32.60;47.20;;;;;;4992565;28;20574;-78
2022/09/04 13:35:11;;;;;;;2.10;1.00;;;32.60;47.40;;;;;;4992853;28;20570;-77
2022/09/04 13:37:53;;;;;;;1.93;1.00;;;32.50;47.30;;;;;;4992494;28;20613;-78
2022/09/04 13:40:53;;;;;;;1.50;0.87;;;32.40;47.20;;;;;;4992045;28;20966;-78
2022/09/04 13:43:40;;;;;;;1.50;0.60;;;32.30;47.20;;;;;;4992758;28;20636;-78
2022/09/04 13:46:15;;;;;;;1.70;0.93;;;32.20;47.10;;;;;;4990945;28;20982;-79
2022/09/04 13:48:51;;;;;;;2.43;1.00;;;32.10;47.20;;;;;;4992469;28;20941;-78
2022/09/04 13:51:24;;;;;;;1.63;0.70;;;31.90;47.30;;;;;;4971574;28;20579;-79
2022/09/04 13:54:17;;;;;;;1.60;0.80;;;31.60;47.40;;;;;;4989716;28;20565;-78
2022/09/04 13:56:51;;;;;;;3.77;0.80;;;31.50;47.70;;;;;;4971699;28;20563;-79
2022/09/04 13:59:19;;;;;;;1.60;0.70;;;31.40;47.90;;;;;;4991755;28;20906;-78
2022/09/04 14:01:50;;;;;;;2.43;0.80;;;31.40;47.90;;;;;;4992259;28;21107;-78
2022/09/04 14:04:42;;;;;;;5.23;0.73;;;31.50;48.20;;;;;;4992100;28;20605;-78
2022/09/04 14:07:19;;;;;;;1.60;0.80;;;31.50;48.20;;;;;;4971259;28;20622;-78
2022/09/04 14:09:48;;;;;;;1.40;0.70;;;31.60;48.20;;;;;;4988647;28;20717;-78
2022/09/04 14:12:48;;;;;;;4.07;1.10;;;31.60;48.10;;;;;;4992050;28;20574;-78
2022/09/04 14:15:39;;;;;;;2.97;2.00;;;31.70;48.10;;;;;;4956750;28;20575;-78
2022/09/04 14:18:33;;;;;;;5.03;1.63;;;31.70;48.00;;;;;;4991331;28;20701;-78
2022/09/04 14:21:29;;;;;;;1.80;0.90;;;31.70;48.00;;;;;;4991908;28;20656;-78
2022/09/04 14:24:02;;;;;;;1.50;0.90;;;31.60;47.80;;;;;;4992203;28;20567;-79
2022/09/04 14:26:51;;;;;;;1.63;0.70;;;31.70;47.90;;;;;;4955388;28;20603;-79
2022/09/04 14:29:24;;;;;;;1.37;0.60;;;31.70;47.70;;;;;;4984814;28;21199;-78
2022/09/04 14:31:53;;;;;;;1.70;0.70;;;31.70;47.60;;;;;;4992040;28;21143;-78